Flugplatz Allendorf/Eder

Für EDFQ sind keine METAR/TAF Berichte vorhanden.
Es werden die Flugwettermeldungen vom Flugplatz Fritzlar Airport in 43 km Entfernung angezeigt.

Bericht für ETHF

vom 31.05. um 10:20 UTC

Wind 5 kt aus 60°

Sichtweite 10 km oder mehr

aufgelockert bewölkt in 4800 ft

aufgebrochene Bewölkung in 22000 ft

Temperatur 16.0°C

Taupunkt 4.0°C

Luftfeuchtigkeit 45%

Luftdruck 1023 hPa

ETHF 311020Z 06005KT 9999 SCT048 BKN220 16/04 Q1023 BLU+
Keine Prognose (TAF) verfügbar.
Impressum